Flight Track Log - Related Links

Times and Time Zones

All times are in EDT time to prevent confusion due to time zone crossing. See the SKW4564 flight status page for this flight to view local times or setup timezone preferences in your user account.

Time Position Orientation Groundspeed Altitude Reporting Facility
EDT Latitude Longitude Course Direction KTS MPH feet Rate Location/Type
Sun 10:32:22 PM 40.7711 -111.9744 50° Northeast 173 199 4,900  Level Salt Lake Center
Sun 10:33:31 PM 40.7475 -112.0283 240° Southwest 217 250 6,900 1,695 Climbing Salt Lake Center
Sun 10:34:33 PM 40.7864 -112.1064 303° West 276 318 8,600 1,645 Climbing Salt Lake Center
Sun 10:35:35 PM 40.8469 -112.1817 317° Northwest 300 345 10,300 1,935 Climbing Salt Lake Center
Sun 10:36:00 PM 41.0698 -112.0167 North  Level FlightAware Approximate
Sun 10:36:37 PM 40.9425 -112.2400 335° Northwest 323 372 12,600  Level Salt Lake Center
Sun 10:37:00 PM 41.1503 -111.9116 50° Northeast  Level FlightAware Approximate
Sun 10:37:38 PM 41.0342 -112.2658 348° North 336 387 14,400  Level Salt Lake Center
Sun 10:38:40 PM 41.1269 -112.2914 348° North 337 388 16,200 1,597 Climbing Salt Lake Center
Sun 10:39:42 PM 41.2225 -112.3181 348° North 347 399 17,700 1,306 Climbing Salt Lake Center
Sun 10:40:44 PM 41.3208 -112.3469 348° North 359 413 18,900 1,122 Climbing Salt Lake Center
Sun 10:41:45 PM 41.4233 -112.3750 348° North 375 432 20,000 1,024 Climbing Salt Lake Center
Sun 10:42:47 PM 41.5289 -112.4044 348° North 387 445 21,000 919 Climbing Salt Lake Center
Sun 10:43:49 PM 41.6369 -112.4356 348° North 396 456 21,900 919 Climbing Salt Lake Center
Sun 10:44:51 PM 41.7667 -112.4728 348° North 395 455 22,900 878 Climbing Salt Lake Center
Sun 10:45:52 PM 41.8769 -112.5064 347° North 402 463 23,700 537 Climbing Salt Lake Center
Sun 10:46:54 PM 41.9922 -112.5375 349° North 418 481 24,000 145 Climbing Salt Lake Center
Sun 10:47:56 PM 42.1119 -112.5731 348° North 436 502 24,000  Level Salt Lake Center
Sun 10:48:57 PM 42.2308 -112.6058 348° North 436 502 24,000  Level Salt Lake Center
Sun 10:49:59 PM 42.3458 -112.6406 347° North 426 490 24,000  Level Salt Lake Center
Sun 10:51:00 PM 42.4625 -112.6753 348° North 429 494 24,000  Level Salt Lake Center
Sun 10:52:02 PM 42.5789 -112.7094 348° North 429 494 24,000  Level Salt Lake Center
Sun 10:53:03 PM 42.7181 -112.7497 348° North 426 490 24,000  Level Salt Lake Center
Sun 10:54:05 PM 42.8297 -112.7831 348° North 427 491 24,000  Level Salt Lake Center
Sun 10:55:07 PM 42.9408 -112.8128 349° North 426 490 24,000  Level Salt Lake Center
Sun 10:56:08 PM 43.0694 -112.8503 348° North 422 486 24,000  Level Salt Lake Center
Sun 10:57:09 PM 43.1811 -112.8839 348° North 425 489 24,000  Level Salt Lake Center
Sun 10:58:11 PM 43.3097 -112.9242 347° North 426 490 24,000  Level Salt Lake Center
Sun 10:59:12 PM 43.4178 -112.9569 348° North 420 483 24,000  Level Salt Lake Center
Sun 11:00:13 PM 43.5281 -112.9906 348° North 420 483 24,000  Level Salt Lake Center
Sun 11:01:15 PM 43.6569 -113.0289 348° North 422 486 24,000  Level Salt Lake Center
Sun 11:02:16 PM 43.7669 -113.0631 347° North 424 488 24,000  Level Salt Lake Center
Sun 11:03:18 PM 43.8967 -113.1033 347° North 425 489 24,000  Level Salt Lake Center
Sun 11:04:19 PM 44.0078 -113.1397 347° North 426 490 24,000  Level Salt Lake Center
Sun 11:05:20 PM 44.1203 -113.1739 348° North 428 493 24,000  Level Salt Lake Center
Sun 11:06:22 PM 44.2511 -113.2133 348° North 429 494 24,000  Level Salt Lake Center
Sun 11:07:23 PM 44.3631 -113.2483 347° North 429 494 24,000  Level Salt Lake Center
Sun 11:08:24 PM 44.4753 -113.2839 347° North 430 495 24,000  Level Salt Lake Center
Sun 11:09:25 PM 44.6044 -113.3250 347° North 428 493 24,000  Level Salt Lake Center
Sun 11:10:27 PM 44.7158 -113.3592 348° North 427 491 24,000  Level Salt Lake Center
Sun 11:11:28 PM 44.8444 -113.4006 347° North 425 489 24,000  Level Salt Lake Center
Sun 11:12:29 PM 44.9539 -113.4347 348° North 422 486 24,000  Level Salt Lake Center
Sun 11:13:31 PM 45.0639 -113.4686 348° North 422 486 24,000  Level Salt Lake Center
Sun 11:14:32 PM 45.1914 -113.5119 347° North 421 484 24,000  Level Salt Lake Center
Sun 11:15:33 PM 45.3019 -113.5469 347° North 422 486 24,000  Level Salt Lake Center
Sun 11:16:35 PM 45.4150 -113.5819 348° North 427 491 24,000 -780 Level Salt Lake Center
Sun 11:17:36 PM 45.5458 -113.6225 348° North 430 495 22,400 -1,426 Descending Salt Lake Center
Sun 11:18:37 PM 45.6392 -113.6531 347° North 419 482 21,100 -1,512 Descending Salt Lake Center
Sun 11:19:39 PM 45.7700 -113.6961 347° North 407 468 19,300 -1,610 Descending Salt Lake Center
Sun 11:20:40 PM 45.8789 -113.7317 347° North 404 465 17,800 -1,426 Descending Salt Lake Center
Sun 11:21:41 PM 45.9842 -113.7703 346° North 397 457 16,400 -1,377 Descending Salt Lake Center
Sun 11:22:42 PM 46.0872 -113.8069 346° North 390 449 15,000 -639 Descending Salt Lake Center
Sun 11:23:43 PM 46.1875 -113.8411 347° North 345 397 15,100 49 Climbing Salt Lake Center
Sun 11:24:45 PM 46.2775 -113.8689 348° North 334 384 15,100 -98 Level Salt Lake Center
Sun 11:25:46 PM 46.3572 -113.8953 347° North 295 339 14,900 -885 Descending Salt Lake Center
Sun 11:26:47 PM 46.4361 -113.9225 347° North 273 314 13,300 -1,672 Descending Salt Lake Center
Sun 11:27:48 PM 46.5047 -113.9469 346° North 257 296 11,500 -1,820 Descending Salt Lake Center
Sun 11:28:49 PM 46.5728 -113.9778 343° North 257 296 9,600 -1,415 Descending Salt Lake Center
Sun 11:29:51 PM 46.6361 -114.0153 338° Northwest 249 287 8,600 -683 Descending Salt Lake Center
Sun 11:30:52 PM 46.7047 -114.0425 345° North 234 269 8,200 -639 Descending Salt Lake Center
Sun 11:31:53 PM 46.7603 -114.0689 342° North 213 245 7,300 -1,230 Descending Salt Lake Center
Sun 11:32:54 PM 46.8117 -114.0478 16° North 201 231 5,700 -1,230 Descending Salt Lake Center
Sun 11:33:55 PM 46.8608 -114.0175 23° Northeast 174 200 4,800 -984 Descending Salt Lake Center
Sun 11:34:56 PM 46.8947 -114.0556 323° Northwest 159 183 3,700 -732 Descending Salt Lake Center
Sun 11:35:58 PM 46.9194 -114.0978 311° West 157 181 3,300 -387 Descending Salt Lake Center

Login

Don't have an account? Register now (free) for customized features, flight alerts, and more!